Time;durP1;ratioP1;P1;durP2;ratioP2;P2;SDS_P1;SDS_P2;PMS_P1;PMS_P2;Temp;Humidity;BMP_temperature;BMP_pressure;BME280_temperature;BME280_humidity;BME280_pressure;Samples;Min_cycle;Max_cycle;Signal;HPM_P1;HPM_P2
2022/03/12 00:00:00;;;;;;;18.05;7.20;;;;;;;;;;5031864;28;20025;-69
2022/03/12 00:02:31;;;;;;;14.30;8.07;;;;;;;;;;5032133;28;20033;-69
2022/03/12 00:04:58;;;;;;;15.05;8.40;;;;;;;;;;5032192;28;20076;-69
2022/03/12 00:07:27;;;;;;;31.17;16.42;;;;;;;;;;5032161;28;20017;-69
2022/03/12 00:09:55;;;;;;;60.55;25.35;;;;;;;;;;5035428;28;20018;-69
2022/03/12 00:12:30;;;;;;;74.03;27.17;;;;;;;;;;5035503;28;20037;-69
2022/03/12 00:14:58;;;;;;;79.93;34.83;;;;;;;;;;5035498;28;20032;-69
2022/03/12 00:17:29;;;;;;;44.00;25.00;;;;;;;;;;5034354;28;20064;-69
2022/03/12 00:19:56;;;;;;;32.88;19.75;;;;;;;;;;5035370;28;20195;-70
2022/03/12 00:22:28;;;;;;;23.13;14.32;;;;;;;;;;5033204;28;20477;-69
2022/03/12 00:24:57;;;;;;;21.45;11.68;;;;;;;;;;5033267;28;20034;-68
2022/03/12 00:27:24;;;;;;;18.63;9.60;;;;;;;;;;5033451;28;20029;-68
2022/03/12 00:29:54;;;;;;;15.57;8.85;;;;;;;;;;5033384;28;20469;-68
2022/03/12 00:32:21;;;;;;;46.38;26.67;;;;;;;;;;5033361;28;20125;-68
2022/03/12 00:34:49;;;;;;;27.95;14.98;;;;;;;;;;5016719;28;20025;-69
2022/03/12 00:37:22;;;;;;;67.15;32.60;;;;;;;;;;5033178;28;20045;-69
2022/03/12 00:39:49;;;;;;;71.70;33.60;;;;;;;;;;5016632;28;20053;-69
2022/03/12 00:42:17;;;;;;;53.88;26.60;;;;;;;;;;5033055;28;20038;-69
2022/03/12 00:44:45;;;;;;;42.92;21.17;;;;;;;;;;5033048;28;20040;-69
2022/03/12 00:47:12;;;;;;;32.40;18.05;;;;;;;;;;5033016;28;20029;-68
2022/03/12 00:49:40;;;;;;;36.05;16.75;;;;;;;;;;5033132;28;20426;-69
2022/03/12 00:52:07;;;;;;;29.00;15.57;;;;;;;;;;5033083;28;20038;-68
2022/03/12 00:54:36;;;;;;;28.00;15.88;;;;;;;;;;5034832;28;20028;-69
2022/03/12 00:57:03;;;;;;;27.90;15.60;;;;;;;;;;5034818;28;20022;-69
2022/03/12 00:59:31;;;;;;;28.60;16.63;;;;;;;;;;5034826;28;20087;-69
2022/03/12 01:01:59;;;;;;;28.58;16.67;;;;;;;;;;5033536;28;20042;-69
2022/03/12 01:04:26;;;;;;;31.48;17.80;;;;;;;;;;5033699;28;20021;-69
2022/03/12 01:06:54;;;;;;;38.17;20.40;;;;;;;;;;5034592;28;20026;-69
2022/03/12 01:09:22;;;;;;;46.20;24.73;;;;;;;;;;5033477;28;20029;-69
2022/03/12 01:11:50;;;;;;;44.25;24.35;;;;;;;;;;5033408;28;20333;-69
2022/03/12 01:14:17;;;;;;;42.35;26.67;;;;;;;;;;5033424;28;20067;-69
2022/03/12 01:16:45;;;;;;;49.88;28.45;;;;;;;;;;5034256;28;20026;-69
2022/03/12 01:19:13;;;;;;;41.95;25.60;;;;;;;;;;5034201;28;20108;-69
2022/03/12 01:21:40;;;;;;;45.45;26.27;;;;;;;;;;5034113;28;20089;-69
2022/03/12 01:24:08;;;;;;;34.85;21.00;;;;;;;;;;5034314;28;20478;-69
2022/03/12 01:26:36;;;;;;;28.23;17.45;;;;;;;;;;5034342;28;20405;-69
2022/03/12 01:29:04;;;;;;;29.95;18.75;;;;;;;;;;5033085;28;20033;-68
2022/03/12 01:31:31;;;;;;;32.88;19.75;;;;;;;;;;5034189;28;20040;-68
2022/03/12 01:33:59;;;;;;;32.30;20.30;;;;;;;;;;5034229;28;20053;-68
2022/03/12 01:36:27;;;;;;;32.15;19.80;;;;;;;;;;5034207;28;20056;-68
2022/03/12 01:38:55;;;;;;;33.58;20.63;;;;;;;;;;5033842;28;20034;-69
2022/03/12 01:41:26;;;;;;;29.20;18.75;;;;;;;;;;5032501;28;20338;-69
2022/03/12 01:43:54;;;;;;;42.78;25.10;;;;;;;;;;5034005;28;20025;-69
2022/03/12 01:46:42;;;;;;;34.63;20.90;;;;;;;;;;5032889;28;20117;-68
2022/03/12 01:49:18;;;;;;;45.53;26.02;;;;;;;;;;5033967;28;20033;-69
2022/03/12 01:51:47;;;;;;;40.40;22.67;;;;;;;;;;5033933;28;20087;-69
2022/03/12 01:54:18;;;;;;;36.28;22.48;;;;;;;;;;5032557;28;20052;-68
2022/03/12 01:56:45;;;;;;;35.05;23.88;;;;;;;;;;5033679;28;20122;-69
2022/03/12 01:59:13;;;;;;;47.17;29.17;;;;;;;;;;5033802;28;20029;-68
2022/03/12 02:01:39;;;;;;;33.55;21.92;;;;;;;;;;5032501;28;20055;-68
2022/03/12 02:04:07;;;;;;;38.05;26.25;;;;;;;;;;5033788;28;20306;-68
2022/03/12 02:06:36;;;;;;;41.25;26.02;;;;;;;;;;5033665;28;20024;-69
2022/03/12 02:09:03;;;;;;;36.00;22.38;;;;;;;;;;5032435;28;20033;-69
2022/03/12 02:11:32;;;;;;;32.78;20.27;;;;;;;;;;5033598;28;20449;-69
2022/03/12 02:14:17;;;;;;;42.83;26.85;;;;;;;;;;5033626;28;20323;-69
2022/03/12 02:16:46;;;;;;;35.03;23.55;;;;;;;;;;5033546;28;20018;-68
2022/03/12 02:19:14;;;;;;;36.97;24.27;;;;;;;;;;5033475;28;20296;-68
2022/03/12 02:21:59;;;;;;;36.47;24.15;;;;;;;;;;5033215;28;20059;-69
2022/03/12 02:24:28;;;;;;;41.75;25.65;;;;;;;;;;5032341;28;20021;-69
2022/03/12 02:26:57;;;;;;;36.65;23.42;;;;;;;;;;5033492;28;20022;-69
2022/03/12 02:29:25;;;;;;;35.75;21.92;;;;;;;;;;5033387;28;20026;-68
2022/03/12 02:32:00;;;;;;;29.27;17.60;;;;;;;;;;5032746;28;20028;-68
2022/03/12 02:34:30;;;;;;;40.78;25.35;;;;;;;;;;5032128;28;20025;-69
2022/03/12 02:36:58;;;;;;;60.70;34.67;;;;;;;;;;5031940;28;20026;-70
2022/03/12 02:39:27;;;;;;;42.05;26.40;;;;;;;;;;5032135;28;20030;-69
2022/03/12 02:41:56;;;;;;;40.45;24.58;;;;;;;;;;5033056;28;20025;-69
2022/03/12 02:44:26;;;;;;;40.38;22.63;;;;;;;;;;5032091;28;20036;-70
2022/03/12 02:47:13;;;;;;;39.72;24.35;;;;;;;;;;5033170;28;20097;-70
2022/03/12 02:49:43;;;;;;;38.75;25.77;;;;;;;;;;5033076;28;20018;-70
2022/03/12 02:52:10;;;;;;;51.33;30.27;;;;;;;;;;5031930;28;20026;-70
2022/03/12 02:54:41;;;;;;;50.72;30.33;;;;;;;;;;5033113;28;20029;-69
2022/03/12 02:57:09;;;;;;;54.08;33.17;;;;;;;;;;5033081;28;20022;-69
2022/03/12 02:59:38;;;;;;;82.70;45.80;;;;;;;;;;5033127;28;20082;-69
2022/03/12 03:02:08;;;;;;;73.10;42.67;;;;;;;;;;5032797;28;20045;-69
2022/03/12 03:04:36;;;;;;;51.72;31.45;;;;;;;;;;5032019;28;20339;-70
2022/03/12 03:07:07;;;;;;;46.30;27.35;;;;;;;;;;5032979;28;20026;-70
2022/03/12 03:09:35;;;;;;;55.00;32.45;;;;;;;;;;5032905;28;20074;-70
2022/03/12 03:12:07;;;;;;;40.38;23.10;;;;;;;;;;5031773;28;20081;-70
2022/03/12 03:14:34;;;;;;;44.28;22.40;;;;;;;;;;5032820;28;20032;-69
2022/03/12 03:17:05;;;;;;;60.92;25.00;;;;;;;;;;5031675;28;20086;-68
2022/03/12 03:19:34;;;;;;;36.67;18.40;;;;;;;;;;5032719;28;20033;-70
2022/03/12 03:22:01;;;;;;;36.95;17.45;;;;;;;;;;5032619;28;20033;-68
2022/03/12 03:24:29;;;;;;;33.75;16.35;;;;;;;;;;5032692;28;20151;-70
2022/03/12 03:26:59;;;;;;;30.30;18.08;;;;;;;;;;5032671;28;20022;-69
2022/03/12 03:29:27;;;;;;;36.30;20.67;;;;;;;;;;5032652;28;20118;-69
2022/03/12 03:31:55;;;;;;;46.97;24.38;;;;;;;;;;5032572;28;20044;-69
2022/03/12 03:34:23;;;;;;;51.22;26.58;;;;;;;;;;5031438;28;20133;-67
2022/03/12 03:36:52;;;;;;;57.13;28.23;;;;;;;;;;5032561;28;20026;-67
2022/03/12 03:39:19;;;;;;;57.85;28.00;;;;;;;;;;5031402;28;20044;-66
2022/03/12 03:41:47;;;;;;;41.05;21.58;;;;;;;;;;5031245;28;20026;-66
2022/03/12 03:44:32;;;;;;;41.25;19.05;;;;;;;;;;5034694;28;20021;-68
2022/03/12 03:47:00;;;;;;;40.95;19.92;;;;;;;;;;5034611;28;20029;-67
2022/03/12 03:49:28;;;;;;;38.75;20.73;;;;;;;;;;5034740;28;20025;-66
2022/03/12 03:52:01;;;;;;;33.95;20.27;;;;;;;;;;5035616;28;20032;-66
2022/03/12 03:54:29;;;;;;;40.83;18.90;;;;;;;;;;5034626;28;20116;-67
2022/03/12 03:56:56;;;;;;;34.30;17.55;;;;;;;;;;5035628;28;20349;-67
2022/03/12 03:59:24;;;;;;;35.63;16.27;;;;;;;;;;5035554;28;20018;-67
2022/03/12 04:01:50;;;;;;;31.98;14.23;;;;;;;;;;5035356;28;20098;-68
2022/03/12 04:04:17;;;;;;;23.60;13.15;;;;;;;;;;5034546;28;20049;-67
2022/03/12 04:06:44;;;;;;;24.30;11.60;;;;;;;;;;5035306;28;20044;-67
2022/03/12 04:09:12;;;;;;;22.17;11.23;;;;;;;;;;5035501;28;20055;-68
2022/03/12 04:11:42;;;;;;;21.83;10.73;;;;;;;;;;5035433;28;20033;-68
2022/03/12 04:14:09;;;;;;;15.65;8.35;;;;;;;;;;5035260;28;20074;-68
2022/03/12 04:16:37;;;;;;;18.13;8.73;;;;;;;;;;5035149;28;20101;-68
2022/03/12 04:19:05;;;;;;;24.58;11.55;;;;;;;;;;5035364;28;20026;-68
2022/03/12 04:21:33;;;;;;;23.23;13.18;;;;;;;;;;5035080;28;20106;-68
2022/03/12 04:24:06;;;;;;;26.45;13.32;;;;;;;;;;5034429;28;20057;-67
2022/03/12 04:26:35;;;;;;;23.90;12.52;;;;;;;;;;5035242;28;20025;-68
2022/03/12 04:29:09;;;;;;;29.00;15.52;;;;;;;;;;5035287;28;20021;-71
2022/03/12 04:31:37;;;;;;;37.88;17.23;;;;;;;;;;5035148;28;20094;-72
2022/03/12 04:34:04;;;;;;;39.40;18.23;;;;;;;;;;5034122;28;20025;-71
2022/03/12 04:36:34;;;;;;;34.00;15.60;;;;;;;;;;5035165;28;20030;-71
2022/03/12 04:39:03;;;;;;;19.10;10.02;;;;;;;;;;5034240;28;20025;-70
2022/03/12 04:41:34;;;;;;;23.65;11.05;;;;;;;;;;5034796;28;20018;-71
2022/03/12 04:44:04;;;;;;;35.25;16.60;;;;;;;;;;5035056;28;20270;-71
2022/03/12 04:46:31;;;;;;;24.67;12.73;;;;;;;;;;5035199;28;20021;-72
2022/03/12 04:48:59;;;;;;;25.35;12.57;;;;;;;;;;5034375;28;20425;-71
2022/03/12 04:51:28;;;;;;;19.45;9.65;;;;;;;;;;5034021;28;20041;-71
2022/03/12 04:54:02;;;;;;;17.50;9.77;;;;;;;;;;5034746;28;20036;-71
2022/03/12 04:56:32;;;;;;;18.38;9.40;;;;;;;;;;5033880;28;20037;-71
2022/03/12 04:59:00;;;;;;;17.15;8.05;;;;;;;;;;5033906;28;20022;-71
2022/03/12 05:01:27;;;;;;;12.68;7.32;;;;;;;;;;5034765;28;20046;-72
2022/03/12 05:03:54;;;;;;;17.02;9.43;;;;;;;;;;5034806;28;20018;-70
2022/03/12 05:06:23;;;;;;;14.60;7.68;;;;;;;;;;5034815;28;20032;-70
2022/03/12 05:08:51;;;;;;;11.82;6.57;;;;;;;;;;5033262;28;20074;-72
2022/03/12 05:11:18;;;;;;;10.95;6.90;;;;;;;;;;5034598;28;20029;-72
2022/03/12 05:13:51;;;;;;;12.25;7.10;;;;;;;;;;5034534;28;20100;-72
2022/03/12 05:16:20;;;;;;;14.32;7.50;;;;;;;;;;5034380;28;20317;-70
2022/03/12 05:18:48;;;;;;;15.98;8.38;;;;;;;;;;5034503;28;20026;-69
2022/03/12 05:21:16;;;;;;;20.23;10.50;;;;;;;;;;5034366;28;20044;-69
2022/03/12 05:23:44;;;;;;;19.15;9.85;;;;;;;;;;5034844;28;20030;-70
2022/03/12 05:26:11;;;;;;;17.63;9.57;;;;;;;;;;5034157;28;20030;-69
2022/03/12 05:28:41;;;;;;;18.98;10.57;;;;;;;;;;5034276;28;20026;-70
2022/03/12 05:31:10;;;;;;;19.17;10.10;;;;;;;;;;5034234;28;20018;-71
2022/03/12 05:33:37;;;;;;;14.48;8.13;;;;;;;;;;5033268;28;20034;-71
2022/03/12 05:36:05;;;;;;;15.35;8.73;;;;;;;;;;5034364;28;20026;-72
2022/03/12 05:38:36;;;;;;;11.52;5.95;;;;;;;;;;5034243;28;20037;-71
2022/03/12 05:41:09;;;;;;;16.75;8.95;;;;;;;;;;5034240;28;20026;-72
2022/03/12 05:43:40;;;;;;;14.80;7.30;;;;;;;;;;5034155;28;20100;-71
2022/03/12 05:46:07;;;;;;;12.93;7.53;;;;;;;;;;5034155;28;20024;-72
2022/03/12 05:48:35;;;;;;;13.90;7.68;;;;;;;;;;5034202;28;20046;-71
2022/03/12 05:51:04;;;;;;;9.15;5.35;;;;;;;;;;5034132;28;20035;-71
2022/03/12 05:53:32;;;;;;;19.95;10.02;;;;;;;;;;5033897;28;20033;-71
2022/03/12 05:56:00;;;;;;;13.27;7.43;;;;;;;;;;5034059;28;20025;-71
2022/03/12 05:58:27;;;;;;;31.17;19.40;;;;;;;;;;5033969;28;20330;-71
2022/03/12 06:00:55;;;;;;;18.67;11.65;;;;;;;;;;5033730;28;20215;-72
2022/03/12 06:03:24;;;;;;;18.33;11.13;;;;;;;;;;5032872;28;20030;-72
2022/03/12 06:05:55;;;;;;;8.68;6.10;;;;;;;;;;5033171;28;20035;-70
2022/03/12 06:08:24;;;;;;;14.05;8.75;;;;;;;;;;5033753;28;20329;-72
2022/03/12 06:10:54;;;;;;;13.25;8.23;;;;;;;;;;5033780;28;20025;-71
2022/03/12 06:13:23;;;;;;;7.20;4.55;;;;;;;;;;5033815;28;20021;-70
2022/03/12 06:15:58;;;;;;;9.43;5.78;;;;;;;;;;5033755;28;20034;-69
2022/03/12 06:18:27;;;;;;;8.30;4.95;;;;;;;;;;5033657;28;20082;-70
2022/03/12 06:20:54;;;;;;;9.95;4.20;;;;;;;;;;5034634;28;20022;-70
2022/03/12 06:23:22;;;;;;;7.43;2.75;;;;;;;;;;5033705;28;20022;-71
2022/03/12 06:25:50;;;;;;;4.57;2.45;;;;;;;;;;5033684;28;20018;-71
2022/03/12 06:28:17;;;;;;;10.30;4.90;;;;;;;;;;5033594;28;20040;-71
2022/03/12 06:30:47;;;;;;;12.02;6.93;;;;;;;;;;5033480;28;20048;-71
2022/03/12 06:33:18;;;;;;;10.85;6.32;;;;;;;;;;5033427;28;20426;-72
2022/03/12 06:35:46;;;;;;;6.88;3.70;;;;;;;;;;5033412;28;20025;-72
2022/03/12 06:38:14;;;;;;;7.07;4.10;;;;;;;;;;5032238;28;20029;-70
2022/03/12 06:40:45;;;;;;;10.60;4.63;;;;;;;;;;5032192;28;20381;-70
2022/03/12 06:43:18;;;;;;;5.05;2.25;;;;;;;;;;5033388;28;20041;-71
2022/03/12 06:45:47;;;;;;;6.32;3.17;;;;;;;;;;5033707;28;20048;-70
2022/03/12 06:48:14;;;;;;;13.02;5.25;;;;;;;;;;5033254;28;20067;-72
2022/03/12 06:50:43;;;;;;;5.32;2.65;;;;;;;;;;5032124;28;20026;-70
2022/03/12 06:53:10;;;;;;;11.63;6.75;;;;;;;;;;5032092;28;20027;-71
2022/03/12 06:55:38;;;;;;;13.15;6.65;;;;;;;;;;5032818;28;20018;-72
2022/03/12 06:58:05;;;;;;;15.05;7.00;;;;;;;;;;5032949;28;20025;-71
2022/03/12 07:00:32;;;;;;;15.55;7.75;;;;;;;;;;5032858;28;20056;-71
2022/03/12 07:02:59;;;;;;;28.15;10.70;;;;;;;;;;5032990;28;20036;-71
2022/03/12 07:05:27;;;;;;;31.65;12.77;;;;;;;;;;5032800;28;20029;-71
2022/03/12 07:07:55;;;;;;;41.65;19.20;;;;;;;;;;5032768;28;20422;-71
2022/03/12 07:10:22;;;;;;;39.85;18.60;;;;;;;;;;5033048;28;20025;-72
2022/03/12 07:12:51;;;;;;;68.10;32.58;;;;;;;;;;5134658;28;20036;-70
2022/03/12 07:15:19;;;;;;;47.83;25.27;;;;;;;;;;5117664;28;20063;-72
2022/03/12 07:17:47;;;;;;;23.55;13.65;;;;;;;;;;5137420;27;20034;-73
2022/03/12 07:20:15;;;;;;;19.20;11.15;;;;;;;;;;5139320;27;20052;-69
2022/03/12 07:22:43;;;;;;;11.50;6.35;;;;;;;;;;5121597;27;20037;-71
2022/03/12 07:25:12;;;;;;;22.38;11.98;;;;;;;;;;5122190;27;20122;-71
2022/03/12 07:27:40;;;;;;;66.40;38.25;;;;;;;;;;5139106;27;20034;-71
2022/03/12 07:30:09;;;;;;;13.63;8.20;;;;;;;;;;5139028;27;20026;-71
2022/03/12 07:32:39;;;;;;;13.38;9.32;;;;;;;;;;5139066;27;20027;-71
2022/03/12 07:35:07;;;;;;;12.75;6.68;;;;;;;;;;5121488;27;20080;-73
2022/03/12 07:37:34;;;;;;;13.18;8.48;;;;;;;;;;5121616;27;20027;-72
2022/03/12 07:40:02;;;;;;;16.17;9.38;;;;;;;;;;5138777;27;20098;-71
2022/03/12 07:42:29;;;;;;;15.93;9.43;;;;;;;;;;5121511;27;20080;-71
2022/03/12 07:44:57;;;;;;;16.00;9.35;;;;;;;;;;5138774;27;20035;-72
2022/03/12 07:47:24;;;;;;;16.40;10.10;;;;;;;;;;5138830;27;20030;-71
2022/03/12 07:49:52;;;;;;;14.95;7.78;;;;;;;;;;5138633;27;20119;-71
2022/03/12 07:52:20;;;;;;;17.65;7.40;;;;;;;;;;5138664;27;20057;-70
2022/03/12 07:54:47;;;;;;;17.60;9.02;;;;;;;;;;5121304;27;20035;-69
2022/03/12 07:57:15;;;;;;;19.52;10.25;;;;;;;;;;5133950;27;20040;-71
2022/03/12 07:59:44;;;;;;;21.45;11.45;;;;;;;;;;5140400;27;20106;-71
2022/03/12 08:02:12;;;;;;;22.00;12.40;;;;;;;;;;5139075;27;20050;-69
2022/03/12 08:04:39;;;;;;;27.48;13.15;;;;;;;;;;5140219;27;20015;-72
2022/03/12 08:07:07;;;;;;;25.73;14.18;;;;;;;;;;5140110;27;20019;-72
2022/03/12 08:09:34;;;;;;;21.67;12.02;;;;;;;;;;5140071;27;20475;-71
2022/03/12 08:12:02;;;;;;;28.88;17.80;;;;;;;;;;5140131;27;20091;-70
2022/03/12 08:14:32;;;;;;;23.40;11.68;;;;;;;;;;5138601;27;20035;-70
2022/03/12 08:17:00;;;;;;;20.30;11.40;;;;;;;;;;5139018;27;20054;-71
2022/03/12 08:19:28;;;;;;;17.58;8.23;;;;;;;;;;5140042;27;20125;-70
2022/03/12 08:21:59;;;;;;;17.70;9.90;;;;;;;;;;5140214;27;20023;-69
2022/03/12 08:24:26;;;;;;;22.85;10.70;;;;;;;;;;5140020;27;20092;-71
2022/03/12 08:26:59;;;;;;;18.38;8.18;;;;;;;;;;5138915;27;20027;-70
2022/03/12 08:29:27;;;;;;;15.52;7.40;;;;;;;;;;5138033;27;20023;-70
2022/03/12 08:31:55;;;;;;;14.40;8.35;;;;;;;;;;5138604;27;20109;-70
2022/03/12 08:34:22;;;;;;;21.70;9.98;;;;;;;;;;5139750;27;20031;-70
2022/03/12 08:36:50;;;;;;;16.73;8.10;;;;;;;;;;5139735;27;20023;-71
2022/03/12 08:39:18;;;;;;;17.13;10.27;;;;;;;;;;5139549;27;20435;-70
2022/03/12 08:41:46;;;;;;;20.40;12.68;;;;;;;;;;5139909;27;20668;-71
2022/03/12 08:44:13;;;;;;;19.95;9.93;;;;;;;;;;5140266;27;20027;-71
2022/03/12 08:46:46;;;;;;;20.85;10.70;;;;;;;;;;5139941;27;20058;-71
2022/03/12 08:49:14;;;;;;;24.30;10.77;;;;;;;;;;5138788;27;20019;-72
2022/03/12 08:51:41;;;;;;;19.33;8.82;;;;;;;;;;5139701;27;20027;-72
2022/03/12 08:54:10;;;;;;;30.77;17.10;;;;;;;;;;5139771;27;20072;-74
2022/03/12 08:56:37;;;;;;;18.05;7.78;;;;;;;;;;5137335;27;20037;-72
2022/03/12 08:59:05;;;;;;;11.98;5.70;;;;;;;;;;5137465;27;20472;-71
2022/03/12 09:01:32;;;;;;;17.17;7.90;;;;;;;;;;5137223;27;20047;-71
2022/03/12 09:03:59;;;;;;;12.15;5.43;;;;;;;;;;5137311;27;20146;-70
2022/03/12 09:06:28;;;;;;;11.00;5.80;;;;;;;;;;5137224;27;20019;-69
2022/03/12 09:08:55;;;;;;;15.73;6.40;;;;;;;;;;5120019;27;20050;-68
2022/03/12 09:11:48;;;;;;;8.00;4.10;;;;;;;;;;5136981;27;20031;-70
2022/03/12 09:14:36;;;;;;;14.35;7.63;;;;;;;;;;5137144;27;20092;-69
2022/03/12 09:17:03;;;;;;;14.27;7.00;;;;;;;;;;5127309;27;20104;-70
2022/03/12 09:19:34;;;;;;;14.40;7.60;;;;;;;;;;5137447;27;20341;-69
2022/03/12 09:22:03;;;;;;;11.77;5.63;;;;;;;;;;5137215;27;20363;-70
2022/03/12 09:24:31;;;;;;;12.40;6.53;;;;;;;;;;5137267;27;20072;-71
2022/03/12 09:26:59;;;;;;;15.73;5.60;;;;;;;;;;5119802;27;20027;-70
2022/03/12 09:29:27;;;;;;;11.57;7.53;;;;;;;;;;5120404;27;20027;-70
2022/03/12 09:31:54;;;;;;;24.67;10.02;;;;;;;;;;5119904;27;20030;-70
2022/03/12 09:34:22;;;;;;;16.23;8.48;;;;;;;;;;5120003;27;20027;-69
2022/03/12 09:36:50;;;;;;;11.95;6.75;;;;;;;;;;5136887;27;20023;-71
2022/03/12 09:39:17;;;;;;;20.25;7.63;;;;;;;;;;5136762;27;20069;-71
2022/03/12 09:41:45;;;;;;;9.00;4.68;;;;;;;;;;5118457;27;20027;-70
2022/03/12 09:44:12;;;;;;;10.73;6.00;;;;;;;;;;5136929;27;20031;-71
2022/03/12 09:46:40;;;;;;;19.55;9.63;;;;;;;;;;5125245;27;20031;-70
2022/03/12 09:49:11;;;;;;;16.45;8.30;;;;;;;;;;5137441;27;20019;-70
2022/03/12 09:51:39;;;;;;;18.25;8.88;;;;;;;;;;5138564;27;20094;-71
2022/03/12 09:54:06;;;;;;;10.68;5.72;;;;;;;;;;5138813;27;20419;-71
2022/03/12 09:56:34;;;;;;;10.35;5.70;;;;;;;;;;5138418;27;20038;-72
2022/03/12 09:59:01;;;;;;;12.98;5.97;;;;;;;;;;5138492;27;20042;-71
2022/03/12 10:01:28;;;;;;;17.58;8.88;;;;;;;;;;5137117;27;20072;-70
2022/03/12 10:03:54;;;;;;;13.15;8.00;;;;;;;;;;5139636;27;20132;-70
2022/03/12 10:06:22;;;;;;;18.83;10.15;;;;;;;;;;5138248;27;20050;-70
2022/03/12 10:08:54;;;;;;;19.63;9.82;;;;;;;;;;5137877;27;20023;-70
2022/03/12 10:11:22;;;;;;;20.35;11.02;;;;;;;;;;5137195;27;20028;-70
2022/03/12 10:13:50;;;;;;;18.65;8.50;;;;;;;;;;5137458;27;20023;-70
2022/03/12 10:16:18;;;;;;;10.77;6.35;;;;;;;;;;5138313;27;20032;-69
2022/03/12 10:18:46;;;;;;;13.38;6.20;;;;;;;;;;5137176;27;20487;-71
2022/03/12 10:21:15;;;;;;;20.45;9.10;;;;;;;;;;5137819;27;20027;-70
2022/03/12 10:23:42;;;;;;;19.73;8.85;;;;;;;;;;5137769;27;20431;-71
2022/03/12 10:26:10;;;;;;;16.70;8.07;;;;;;;;;;5136651;27;20102;-71
2022/03/12 10:28:38;;;;;;;21.67;9.15;;;;;;;;;;5136991;27;20030;-70
2022/03/12 10:31:05;;;;;;;15.82;5.55;;;;;;;;;;5136532;27;20099;-70
2022/03/12 10:33:33;;;;;;;12.25;5.60;;;;;;;;;;5137473;27;20034;-70
2022/03/12 10:36:21;;;;;;;15.65;5.05;;;;;;;;;;5136352;27;20021;-71
2022/03/12 10:38:52;;;;;;;9.93;5.25;;;;;;;;;;5137051;27;20023;-70
2022/03/12 10:41:20;;;;;;;17.00;8.32;;;;;;;;;;5137084;27;20320;-71
2022/03/12 10:43:54;;;;;;;18.63;8.30;;;;;;;;;;5136854;27;20019;-70
2022/03/12 10:46:27;;;;;;;39.45;18.90;;;;;;;;;;5136014;27;20416;-70
2022/03/12 10:48:58;;;;;;;10.73;5.63;;;;;;;;;;5135675;27;20354;-70
2022/03/12 10:51:27;;;;;;;16.52;9.05;;;;;;;;;;5135656;27;20023;-70
2022/03/12 10:54:07;;;;;;;21.95;11.25;;;;;;;;;;5135448;27;20023;-70
2022/03/12 10:56:47;;;;;;;10.43;5.40;;;;;;;;;;5137016;27;20023;-70
2022/03/12 10:59:19;;;;;;;7.38;3.90;;;;;;;;;;5136728;27;20427;-71
2022/03/12 11:01:56;;;;;;;9.18;4.57;;;;;;;;;;5135320;27;20043;-70
2022/03/12 11:04:30;;;;;;;7.45;3.85;;;;;;;;;;5136506;27;20321;-70
2022/03/12 11:06:59;;;;;;;7.65;3.65;;;;;;;;;;5136423;28;20011;-70
2022/03/12 11:09:37;;;;;;;8.43;3.28;;;;;;;;;;5136516;28;20068;-71
2022/03/12 11:12:29;;;;;;;7.93;4.10;;;;;;;;;;5136331;28;20023;-71
2022/03/12 11:15:10;;;;;;;8.65;4.57;;;;;;;;;;5136632;27;20102;-70
2022/03/12 11:17:45;;;;;;;13.25;4.43;;;;;;;;;;5136812;28;20072;-70
2022/03/12 11:20:17;;;;;;;7.05;4.35;;;;;;;;;;5135629;28;20023;-71
2022/03/12 11:22:48;;;;;;;6.18;3.35;;;;;;;;;;5136549;28;20423;-71
2022/03/12 11:25:20;;;;;;;5.65;2.90;;;;;;;;;;5136556;28;20025;-70
2022/03/12 11:27:52;;;;;;;5.63;2.58;;;;;;;;;;5135521;28;20023;-71
2022/03/12 11:30:23;;;;;;;6.72;2.85;;;;;;;;;;5136546;28;20016;-70
2022/03/12 11:33:09;;;;;;;5.20;2.72;;;;;;;;;;5136554;28;20019;-70
2022/03/12 11:35:37;;;;;;;12.82;7.00;;;;;;;;;;5136496;28;20019;-70
2022/03/12 11:38:17;;;;;;;15.00;8.02;;;;;;;;;;5136650;28;20023;-70
2022/03/12 11:40:49;;;;;;;9.38;5.13;;;;;;;;;;5136461;28;20492;-70
2022/03/12 11:43:27;;;;;;;12.32;5.22;;;;;;;;;;5136505;28;20439;-71
2022/03/12 11:45:59;;;;;;;10.70;3.95;;;;;;;;;;5137095;28;20046;-70
2022/03/12 11:48:28;;;;;;;20.42;9.52;;;;;;;;;;5136104;27;20403;-71
2022/03/12 11:50:56;;;;;;;14.93;6.00;;;;;;;;;;5136253;28;20416;-72
2022/03/12 11:53:23;;;;;;;23.13;9.65;;;;;;;;;;5135063;28;20110;-71
2022/03/12 11:55:52;;;;;;;66.05;29.20;;;;;;;;;;5135979;28;20019;-71
2022/03/12 11:58:19;;;;;;;25.75;13.27;;;;;;;;;;5134787;27;20427;-72
2022/03/12 12:00:47;;;;;;;29.80;16.17;;;;;;;;;;5135863;28;20052;-72
2022/03/12 12:03:14;;;;;;;26.08;14.05;;;;;;;;;;5135152;27;20055;-71
2022/03/12 12:05:43;;;;;;;23.92;12.93;;;;;;;;;;5139556;27;20424;-72
2022/03/12 12:08:15;;;;;;;15.55;6.47;;;;;;;;;;5138909;27;20381;-70
2022/03/12 12:10:43;;;;;;;56.08;29.88;;;;;;;;;;5138625;27;20107;-72
2022/03/12 12:13:14;;;;;;;33.95;20.90;;;;;;;;;;5138649;27;20029;-70
2022/03/12 12:15:46;;;;;;;40.05;17.55;;;;;;;;;;5138775;27;20420;-72
2022/03/12 12:18:13;;;;;;;26.02;16.92;;;;;;;;;;5139746;27;20026;-72
2022/03/12 12:20:42;;;;;;;28.77;16.98;;;;;;;;;;5139293;27;20072;-71
2022/03/12 12:23:20;;;;;;;38.15;19.20;;;;;;;;;;5139366;27;20091;-69
2022/03/12 12:25:48;;;;;;;29.20;14.20;;;;;;;;;;5138418;27;20020;-69
2022/03/12 12:28:23;;;;;;;23.50;13.10;;;;;;;;;;5139485;27;20054;-70
2022/03/12 12:30:54;;;;;;;17.52;9.70;;;;;;;;;;5139324;27;20019;-68
2022/03/12 12:33:29;;;;;;;25.13;11.15;;;;;;;;;;5138582;27;20320;-69
2022/03/12 12:36:14;;;;;;;19.45;9.00;;;;;;;;;;5138595;27;20068;-70
2022/03/12 12:39:01;;;;;;;27.63;13.65;;;;;;;;;;5139339;27;20019;-68
2022/03/12 12:41:49;;;;;;;41.83;22.92;;;;;;;;;;5137819;27;20072;-69
2022/03/12 12:44:16;;;;;;;59.65;29.05;;;;;;;;;;5138444;27;20027;-70
2022/03/12 12:46:44;;;;;;;65.68;34.58;;;;;;;;;;5138329;27;20039;-71
2022/03/12 12:49:15;;;;;;;144.93;87.15;;;;;;;;;;5139390;27;20094;-69
2022/03/12 12:51:52;;;;;;;235.32;127.68;;;;;;;;;;5139457;27;20106;-69
2022/03/12 12:54:30;;;;;;;92.25;49.60;;;;;;;;;;5138316;27;20023;-70
2022/03/12 12:57:04;;;;;;;81.53;45.55;;;;;;;;;;5138290;27;20034;-69
2022/03/12 12:59:48;;;;;;;76.50;45.38;;;;;;;;;;5139472;27;20073;-70
2022/03/12 13:02:16;;;;;;;81.57;42.58;;;;;;;;;;5138967;27;20088;-69
2022/03/12 13:04:49;;;;;;;112.03;58.00;;;;;;;;;;5139178;27;20023;-69
2022/03/12 13:07:23;;;;;;;143.18;72.65;;;;;;;;;;5138026;27;20027;-70
2022/03/12 13:09:53;;;;;;;171.35;82.03;;;;;;;;;;5139301;27;20023;-69
2022/03/12 13:12:36;;;;;;;140.50;68.32;;;;;;;;;;5138067;27;20073;-69
2022/03/12 13:15:04;;;;;;;99.38;45.45;;;;;;;;;;5137821;27;20055;-70
2022/03/12 13:17:35;;;;;;;103.72;50.03;;;;;;;;;;5139138;27;20030;-68
2022/03/12 13:20:23;;;;;;;90.03;40.03;;;;;;;;;;5137913;27;20043;-69
2022/03/12 13:22:57;;;;;;;85.75;40.88;;;;;;;;;;5138788;27;20433;-70
2022/03/12 13:25:25;;;;;;;135.48;62.10;;;;;;;;;;5137771;27;20023;-70
2022/03/12 13:28:03;;;;;;;156.10;86.50;;;;;;;;;;5138850;27;20087;-69
2022/03/12 13:30:35;;;;;;;117.00;68.22;;;;;;;;;;5138767;27;20023;-69
2022/03/12 13:33:08;;;;;;;122.53;61.25;;;;;;;;;;5138646;27;20308;-68
2022/03/12 13:35:36;;;;;;;106.18;54.72;;;;;;;;;;5138505;27;20019;-69
2022/03/12 13:38:04;;;;;;;92.70;43.42;;;;;;;;;;5138667;27;20030;-69
2022/03/12 13:40:32;;;;;;;102.95;50.50;;;;;;;;;;5137523;27;20118;-68
2022/03/12 13:43:00;;;;;;;70.28;35.05;;;;;;;;;;5137281;27;20031;-70
2022/03/12 13:45:33;;;;;;;59.97;29.35;;;;;;;;;;5138861;27;20053;-68
2022/03/12 13:48:02;;;;;;;45.40;23.10;;;;;;;;;;5138463;27;20019;-69
2022/03/12 13:50:30;;;;;;;43.63;21.70;;;;;;;;;;5138290;27;20053;-69
2022/03/12 13:53:04;;;;;;;42.75;22.00;;;;;;;;;;5138289;27;20027;-69
2022/03/12 13:55:32;;;;;;;45.58;24.63;;;;;;;;;;5138294;27;20023;-70
2022/03/12 13:58:01;;;;;;;133.50;56.35;;;;;;;;;;5138184;27;20053;-70
2022/03/12 14:00:28;;;;;;;174.35;79.45;;;;;;;;;;5137942;27;20505;-69
2022/03/12 14:02:56;;;;;;;149.30;72.25;;;;;;;;;;5137025;27;20059;-70
2022/03/12 14:05:31;;;;;;;121.22;64.90;;;;;;;;;;5136989;27;20047;-68
2022/03/12 14:08:00;;;;;;;149.75;78.72;;;;;;;;;;5138065;27;20065;-69
2022/03/12 14:10:29;;;;;;;138.98;78.03;;;;;;;;;;5138003;27;20103;-69
2022/03/12 14:13:06;;;;;;;131.75;78.25;;;;;;;;;;5137967;27;20031;-69
2022/03/12 14:15:37;;;;;;;106.07;62.50;;;;;;;;;;5136881;27;20023;-69
2022/03/12 14:18:07;;;;;;;101.75;59.10;;;;;;;;;;5137833;27;20022;-70
2022/03/12 14:20:35;;;;;;;98.20;56.33;;;;;;;;;;5137835;27;20031;-69
2022/03/12 14:23:03;;;;;;;115.13;59.03;;;;;;;;;;5136681;27;20327;-69
2022/03/12 14:25:31;;;;;;;125.20;70.18;;;;;;;;;;5136582;27;20027;-68
2022/03/12 14:27:59;;;;;;;142.13;75.78;;;;;;;;;;5135862;27;20391;-71
2022/03/12 14:30:30;;;;;;;163.32;90.60;;;;;;;;;;5136204;27;20043;-71
2022/03/12 14:32:58;;;;;;;179.75;103.85;;;;;;;;;;5137098;27;20090;-71
2022/03/12 14:35:25;;;;;;;182.32;100.70;;;;;;;;;;5137476;27;20027;-71